createdAt,value
2022-10-12T00:02:11.200Z,4.89
2022-10-12T00:04:43.417Z,4.87
2022-10-12T00:07:15.443Z,4.85
2022-10-12T00:09:48.220Z,4.83
2022-10-12T00:12:20.391Z,4.82
2022-10-12T00:14:52.684Z,4.81
2022-10-12T00:17:24.714Z,4.82
2022-10-12T00:19:56.893Z,4.81
2022-10-12T00:22:28.805Z,4.81
2022-10-12T00:25:01.110Z,4.82
2022-10-12T00:27:33.000Z,4.81
2022-10-12T00:30:05.502Z,4.78
2022-10-12T00:32:40.361Z,4.78
2022-10-12T00:35:13.069Z,4.76
2022-10-12T00:37:45.562Z,4.74
2022-10-12T00:40:18.644Z,4.72
2022-10-12T00:42:51.044Z,4.72
2022-10-12T00:45:24.321Z,4.72
2022-10-12T00:48:01.576Z,4.70
2022-10-12T00:50:35.666Z,4.69
2022-10-12T00:53:14.525Z,4.71
2022-10-12T00:55:50.172Z,4.71
2022-10-12T00:58:23.552Z,4.71
2022-10-12T01:00:55.676Z,4.71
2022-10-12T01:03:28.122Z,4.71
2022-10-12T01:06:00.402Z,4.73
2022-10-12T01:08:38.315Z,4.73
2022-10-12T01:11:10.501Z,4.73
2022-10-12T01:13:43.130Z,4.75
2022-10-12T01:16:21.746Z,4.74
2022-10-12T01:19:00.322Z,4.71
2022-10-12T01:21:35.503Z,4.72
2022-10-12T01:24:35.210Z,4.71
2022-10-12T01:27:25.005Z,4.65
2022-10-12T01:30:27.214Z,4.65
2022-10-12T01:33:25.694Z,4.64
2022-10-12T01:36:14.015Z,4.63
2022-10-12T01:38:55.222Z,4.61
2022-10-12T01:41:31.718Z,4.61
2022-10-12T01:44:04.641Z,4.59
2022-10-12T01:46:53.189Z,4.57
2022-10-12T01:49:30.461Z,4.61
2022-10-12T01:52:28.603Z,4.63
2022-10-12T01:55:09.612Z,4.62
2022-10-12T01:57:54.983Z,4.63
2022-10-12T02:00:27.241Z,4.62
2022-10-12T02:03:09.851Z,4.63
2022-10-12T02:05:50.611Z,4.64
2022-10-12T02:08:28.022Z,4.67
2022-10-12T02:11:06.413Z,4.69
2022-10-12T02:13:41.724Z,4.69
2022-10-12T02:16:19.164Z,4.69
2022-10-12T02:18:55.013Z,4.68
2022-10-12T02:21:40.154Z,4.67
2022-10-12T02:24:14.323Z,4.67
2022-10-12T02:26:52.153Z,4.65
2022-10-12T02:29:27.726Z,4.63
2022-10-12T02:32:05.089Z,4.63
2022-10-12T02:34:45.334Z,4.62
2022-10-12T02:37:29.967Z,4.62
2022-10-12T02:40:08.855Z,4.62
2022-10-12T02:43:09.343Z,4.61
2022-10-12T02:45:49.361Z,4.60
2022-10-12T02:48:26.256Z,4.61
2022-10-12T02:51:00.791Z,4.60
2022-10-12T02:53:34.304Z,4.60
2022-10-12T02:56:13.245Z,4.59
2022-10-12T02:58:47.385Z,4.59
2022-10-12T03:01:20.136Z,4.58
2022-10-12T03:03:52.329Z,4.57
2022-10-12T03:06:24.344Z,4.57
2022-10-12T03:08:58.007Z,4.56
2022-10-12T03:11:28.316Z,4.55
2022-10-12T03:14:00.645Z,4.50
2022-10-12T03:16:32.584Z,4.52
2022-10-12T03:19:04.873Z,4.52
2022-10-12T03:21:37.094Z,4.51
2022-10-12T03:24:11.577Z,4.49
2022-10-12T03:26:43.707Z,4.51
2022-10-12T03:29:15.944Z,4.52
2022-10-12T03:31:50.583Z,4.54
2022-10-12T03:34:22.746Z,4.52
2022-10-12T03:36:55.017Z,4.51
2022-10-12T03:39:32.043Z,4.51
2022-10-12T03:42:04.144Z,4.48
2022-10-12T03:44:36.564Z,4.47
2022-10-12T03:47:08.916Z,4.46
2022-10-12T03:49:41.606Z,4.44
2022-10-12T03:52:13.686Z,4.46
2022-10-12T03:54:45.756Z,4.46
2022-10-12T03:57:17.876Z,4.47
2022-10-12T03:59:50.466Z,4.49
2022-10-12T04:02:22.814Z,4.49
2022-10-12T04:04:55.543Z,4.49
2022-10-12T04:07:27.895Z,4.47
2022-10-12T04:10:02.065Z,4.46
2022-10-12T04:12:34.003Z,4.45
2022-10-12T04:15:08.221Z,4.47
2022-10-12T04:17:41.834Z,4.49
2022-10-12T04:20:15.447Z,4.52
2022-10-12T04:22:47.747Z,4.50
2022-10-12T04:25:20.097Z,4.50
2022-10-12T04:27:52.784Z,4.50
2022-10-12T04:30:25.225Z,4.52
2022-10-12T04:32:57.477Z,4.55
2022-10-12T04:35:29.646Z,4.58
2022-10-12T04:38:04.876Z,4.67
2022-10-12T04:40:41.406Z,4.66
2022-10-12T04:43:13.363Z,4.62
2022-10-12T04:45:48.403Z,4.60
2022-10-12T04:48:23.114Z,4.58
2022-10-12T04:50:55.745Z,4.56
2022-10-12T04:53:28.074Z,4.51
2022-10-12T04:56:03.678Z,4.50
2022-10-12T04:58:36.155Z,4.52
2022-10-12T05:01:08.577Z,4.53
2022-10-12T05:03:48.293Z,4.52
2022-10-12T05:06:20.827Z,4.51
2022-10-12T05:08:52.836Z,4.47
2022-10-12T05:11:25.107Z,4.44
2022-10-12T05:13:57.299Z,4.43
2022-10-12T05:16:29.576Z,4.42
2022-10-12T05:19:01.725Z,4.40
2022-10-12T05:21:34.648Z,4.38
2022-10-12T05:24:07.082Z,4.38
2022-10-12T05:26:39.133Z,4.35
2022-10-12T05:29:11.885Z,4.35
2022-10-12T05:31:44.248Z,4.36
2022-10-12T05:34:16.364Z,4.37
2022-10-12T05:36:52.246Z,4.40
2022-10-12T05:39:24.617Z,4.42
2022-10-12T05:41:59.084Z,4.45
2022-10-12T05:44:31.344Z,4.47
2022-10-12T05:47:03.469Z,4.52
2022-10-12T05:49:35.699Z,4.57
2022-10-12T05:52:08.538Z,4.62
2022-10-12T05:54:44.846Z,4.69
2022-10-12T05:57:19.765Z,4.77
2022-10-12T05:59:52.274Z,4.86
2022-10-12T06:02:24.630Z,4.97
2022-10-12T06:04:58.381Z,5.08
2022-10-12T06:07:44.576Z,5.26
2022-10-12T06:10:20.586Z,5.42
2022-10-12T06:12:54.696Z,5.55
2022-10-12T06:15:27.075Z,5.71
2022-10-12T06:18:00.791Z,5.94
2022-10-12T06:20:32.764Z,6.13
2022-10-12T06:23:04.913Z,6.27
2022-10-12T06:25:37.084Z,6.46
2022-10-12T06:28:09.511Z,6.68
2022-10-12T06:30:44.867Z,6.80
2022-10-12T06:33:20.143Z,6.86
2022-10-12T06:35:52.760Z,6.98
2022-10-12T06:38:25.285Z,7.09
2022-10-12T06:40:58.364Z,7.20
2022-10-12T06:43:33.325Z,7.32
2022-10-12T06:46:06.429Z,7.41
2022-10-12T06:48:43.357Z,7.52
2022-10-12T06:51:15.471Z,7.65
2022-10-12T06:53:48.119Z,7.81
2022-10-12T06:56:24.140Z,7.98
2022-10-12T06:58:59.150Z,8.16
2022-10-12T07:01:31.617Z,8.37
2022-10-12T07:04:03.887Z,8.53
2022-10-12T07:06:36.384Z,8.75
2022-10-12T07:09:08.885Z,9.03
2022-10-12T07:11:41.193Z,9.26
2022-10-12T07:14:14.985Z,9.43
2022-10-12T07:16:54.259Z,9.64
2022-10-12T07:19:27.844Z,9.83
2022-10-12T07:22:00.491Z,10.00
2022-10-12T07:24:36.724Z,10.20
2022-10-12T07:27:11.385Z,10.40
2022-10-12T07:29:52.875Z,10.60
2022-10-12T07:32:28.185Z,10.82
2022-10-12T07:35:00.563Z,11.03
2022-10-12T07:37:32.964Z,11.20
2022-10-12T07:40:06.234Z,11.30
2022-10-12T07:42:59.223Z,11.43
2022-10-12T07:45:34.214Z,11.47
2022-10-12T07:48:06.622Z,11.50
2022-10-12T07:50:39.216Z,11.61
2022-10-12T07:53:13.599Z,11.71
2022-10-12T07:55:48.842Z,11.89
2022-10-12T07:58:21.854Z,11.96
2022-10-12T08:00:54.174Z,11.98
2022-10-12T08:03:26.368Z,11.97
2022-10-12T08:05:59.638Z,12.09
2022-10-12T08:08:31.947Z,12.27
2022-10-12T08:11:06.905Z,12.53
2022-10-12T08:13:39.404Z,12.69
2022-10-12T08:16:15.079Z,12.61
2022-10-12T08:18:49.595Z,12.67
2022-10-12T08:21:22.679Z,12.68
2022-10-12T08:23:54.783Z,12.78
2022-10-12T08:26:27.826Z,12.69
2022-10-12T08:29:00.464Z,12.56
2022-10-12T08:31:32.852Z,12.50
2022-10-12T08:34:05.708Z,12.57
2022-10-12T08:36:38.073Z,12.65
2022-10-12T08:39:10.559Z,12.68
2022-10-12T08:41:57.815Z,12.83
2022-10-12T08:44:44.966Z,12.92
2022-10-12T08:47:25.885Z,12.95
2022-10-12T08:49:58.077Z,13.03
2022-10-12T08:52:39.869Z,13.17
2022-10-12T08:55:28.376Z,13.12
2022-10-12T08:58:01.042Z,13.23
2022-10-12T09:00:35.828Z,13.53
2022-10-12T09:03:29.103Z,13.69
2022-10-12T09:06:11.565Z,13.65
2022-10-12T09:08:59.175Z,13.81
2022-10-12T09:11:52.106Z,13.94
2022-10-12T09:14:48.384Z,14.22
2022-10-12T09:17:29.395Z,14.37
2022-10-12T09:20:08.899Z,14.42
2022-10-12T09:22:58.708Z,14.32
2022-10-12T09:25:32.016Z,14.38
2022-10-12T09:28:18.698Z,14.69
2022-10-12T09:31:09.002Z,14.89
2022-10-12T09:33:47.346Z,15.04
2022-10-12T09:36:23.855Z,15.10
2022-10-12T09:39:02.502Z,15.16
2022-10-12T09:41:38.293Z,15.33
2022-10-12T09:44:15.254Z,15.43
2022-10-12T09:46:54.438Z,15.45
2022-10-12T09:49:40.734Z,15.39
2022-10-12T09:52:15.585Z,15.31
2022-10-12T09:54:55.555Z,15.40
2022-10-12T09:57:31.926Z,15.51
2022-10-12T10:00:24.107Z,15.46
2022-10-12T10:02:57.724Z,15.20
2022-10-12T10:05:31.487Z,15.11
2022-10-12T10:08:20.953Z,15.27
2022-10-12T10:10:54.525Z,15.38
2022-10-12T10:13:29.724Z,15.46
2022-10-12T10:16:08.492Z,15.35
2022-10-12T10:18:43.918Z,14.98
2022-10-12T10:21:18.646Z,14.76
2022-10-12T10:23:57.741Z,14.66
2022-10-12T10:26:32.528Z,14.29
2022-10-12T10:29:21.604Z,14.11
2022-10-12T10:32:12.735Z,14.26
2022-10-12T10:34:46.144Z,14.24
2022-10-12T10:37:21.824Z,14.23
2022-10-12T10:40:00.069Z,14.37
2022-10-12T10:42:35.064Z,14.24
2022-10-12T10:45:09.707Z,14.29
2022-10-12T10:47:47.967Z,14.27
2022-10-12T10:50:33.869Z,13.92
2022-10-12T10:53:19.839Z,13.68
2022-10-12T10:55:57.887Z,13.36
2022-10-12T10:58:35.814Z,13.22
2022-10-12T11:01:17.228Z,13.32
2022-10-12T11:03:57.096Z,13.65
2022-10-12T11:06:38.979Z,13.81
2022-10-12T11:09:17.559Z,13.96
2022-10-12T11:11:57.792Z,14.04
2022-10-12T11:14:36.056Z,14.28
2022-10-12T11:17:14.603Z,14.45
2022-10-12T11:19:54.857Z,14.52
2022-10-12T11:22:42.010Z,14.47
2022-10-12T11:25:23.042Z,14.68
2022-10-12T11:27:57.684Z,14.59
2022-10-12T11:30:38.189Z,14.29
2022-10-12T11:33:16.994Z,14.20
2022-10-12T11:35:49.989Z,14.00
2022-10-12T11:38:28.593Z,13.85
2022-10-12T11:41:31.187Z,13.58
2022-10-12T11:44:03.816Z,13.45
2022-10-12T11:46:40.020Z,13.63
2022-10-12T11:49:18.584Z,13.68
2022-10-12T11:51:54.508Z,13.98
2022-10-12T11:54:33.819Z,14.16
2022-10-12T11:57:11.656Z,14.07
2022-10-12T11:59:47.724Z,14.45
2022-10-12T12:02:24.145Z,14.56
2022-10-12T12:04:57.177Z,14.54
2022-10-12T12:07:48.291Z,14.14
2022-10-12T12:11:00.001Z,14.06
2022-10-12T12:13:33.408Z,13.94
2022-10-12T12:16:35.004Z,13.73
2022-10-12T12:19:42.180Z,13.42
2022-10-12T12:22:35.721Z,13.58
2022-10-12T12:25:22.141Z,13.56
2022-10-12T12:27:57.356Z,13.48
2022-10-12T12:30:36.422Z,13.42
2022-10-12T12:33:27.274Z,13.26
2022-10-12T12:36:02.115Z,13.07
2022-10-12T12:38:37.223Z,12.99
2022-10-12T12:41:13.166Z,12.94
2022-10-12T12:44:05.796Z,12.91
2022-10-12T12:47:44.134Z,12.88
2022-10-12T12:50:33.568Z,12.76
2022-10-12T12:53:15.909Z,12.74
2022-10-12T12:56:08.001Z,12.72
2022-10-12T12:58:53.945Z,12.73
2022-10-12T13:01:53.332Z,12.74
2022-10-12T13:04:40.164Z,12.82
2022-10-12T13:07:33.724Z,12.89
2022-10-12T13:10:21.185Z,13.01
2022-10-12T13:13:13.036Z,13.21
2022-10-12T13:16:00.616Z,13.15
2022-10-12T13:18:59.086Z,13.25
2022-10-12T13:21:33.952Z,13.40
2022-10-12T13:24:15.909Z,13.57
2022-10-12T13:26:53.245Z,13.72
2022-10-12T13:29:30.656Z,13.81
2022-10-12T13:32:06.147Z,13.86
2022-10-12T13:34:49.046Z,13.78
2022-10-12T13:37:21.161Z,13.76
2022-10-12T13:39:54.654Z,13.72
2022-10-12T13:42:32.837Z,13.65
2022-10-12T13:45:09.308Z,13.63
2022-10-12T13:47:47.686Z,13.66
2022-10-12T13:50:25.146Z,13.67
2022-10-12T13:52:57.886Z,13.73
2022-10-12T13:55:31.514Z,13.75
2022-10-12T13:58:03.804Z,13.76
2022-10-12T14:00:39.702Z,13.78
2022-10-12T14:03:14.944Z,13.82
2022-10-12T14:05:56.342Z,13.86
2022-10-12T14:08:31.126Z,13.81
2022-10-12T14:11:06.219Z,13.83
2022-10-12T14:13:38.960Z,13.75
2022-10-12T14:16:12.506Z,13.71
2022-10-12T14:18:44.439Z,13.70
2022-10-12T14:21:22.746Z,13.66
2022-10-12T14:23:57.926Z,13.62
2022-10-12T14:26:35.307Z,13.54
2022-10-12T14:29:38.456Z,13.52
2022-10-12T14:32:33.579Z,13.52
2022-10-12T14:35:22.455Z,13.48
2022-10-12T14:37:56.625Z,13.47
2022-10-12T14:40:36.484Z,13.50
2022-10-12T14:43:24.456Z,13.49
2022-10-12T14:45:57.034Z,13.48
2022-10-12T14:48:29.251Z,13.48
2022-10-12T14:51:01.515Z,13.42
2022-10-12T14:53:33.770Z,13.38
2022-10-12T14:56:09.476Z,13.32
2022-10-12T14:58:43.154Z,13.17
2022-10-12T15:01:15.356Z,13.04
2022-10-12T15:03:47.794Z,12.95
2022-10-12T15:06:19.974Z,12.84
2022-10-12T15:09:01.304Z,12.77
2022-10-12T15:11:33.736Z,12.67
2022-10-12T15:14:06.234Z,12.60
2022-10-12T15:16:39.256Z,12.50
2022-10-12T15:19:11.434Z,12.45
2022-10-12T15:21:43.802Z,12.36
2022-10-12T15:24:17.355Z,12.26
2022-10-12T15:26:51.608Z,12.28
2022-10-12T15:29:23.748Z,12.14
2022-10-12T15:31:55.897Z,12.17
2022-10-12T15:34:28.686Z,12.18
2022-10-12T15:37:09.306Z,12.20
2022-10-12T15:39:45.988Z,12.12
2022-10-12T15:42:21.862Z,11.96
2022-10-12T15:44:53.994Z,11.82
2022-10-12T15:47:27.235Z,11.69
2022-10-12T15:49:59.961Z,11.55
2022-10-12T15:52:31.967Z,11.43
2022-10-12T15:55:04.676Z,11.27
2022-10-12T15:57:37.212Z,11.14
2022-10-12T16:00:12.134Z,11.06
2022-10-12T16:02:44.552Z,10.96
2022-10-12T16:05:21.975Z,10.86
2022-10-12T16:07:55.704Z,10.71
2022-10-12T16:10:30.799Z,10.62
2022-10-12T16:13:03.260Z,10.51
2022-10-12T16:15:39.066Z,10.42
2022-10-12T16:18:12.176Z,10.34
2022-10-12T16:20:52.710Z,10.26
2022-10-12T16:23:31.066Z,10.19
2022-10-12T16:26:07.211Z,10.12
2022-10-12T16:28:39.671Z,10.02
2022-10-12T16:31:15.644Z,9.95
2022-10-12T16:33:59.814Z,9.86
2022-10-12T16:36:31.836Z,9.76
2022-10-12T16:39:04.098Z,9.64
2022-10-12T16:41:39.035Z,9.57
2022-10-12T16:44:11.468Z,9.51
2022-10-12T16:46:43.586Z,9.43
2022-10-12T16:49:15.700Z,9.36
2022-10-12T16:51:48.623Z,9.27
2022-10-12T16:54:20.584Z,9.19
2022-10-12T16:56:54.881Z,9.10
2022-10-12T16:59:28.084Z,9.02
2022-10-12T17:02:00.516Z,8.96
2022-10-12T17:04:32.610Z,8.89
2022-10-12T17:07:05.125Z,8.84
2022-10-12T17:09:37.509Z,8.78
2022-10-12T17:12:10.462Z,8.75
2022-10-12T17:14:42.585Z,8.73
2022-10-12T17:17:14.764Z,8.69
2022-10-12T17:19:49.660Z,8.62
2022-10-12T17:22:22.194Z,8.59
2022-10-12T17:24:54.170Z,8.52
2022-10-12T17:27:31.422Z,8.44
2022-10-12T17:30:04.579Z,8.37
2022-10-12T17:32:38.363Z,8.29
2022-10-12T17:35:11.644Z,8.21
2022-10-12T17:37:44.175Z,8.13
2022-10-12T17:40:16.395Z,8.08
2022-10-12T17:42:48.472Z,8.00
2022-10-12T17:45:21.414Z,7.92
2022-10-12T17:47:57.620Z,7.82
2022-10-12T17:50:29.787Z,7.75
2022-10-12T17:53:02.030Z,7.71
2022-10-12T17:55:48.263Z,7.68
2022-10-12T17:58:24.968Z,7.64
2022-10-12T18:00:57.325Z,7.63
2022-10-12T18:03:29.447Z,7.59
2022-10-12T18:06:09.076Z,7.54
2022-10-12T18:08:42.505Z,7.52
2022-10-12T18:11:17.305Z,7.48
2022-10-12T18:13:52.815Z,7.45
2022-10-12T18:16:27.674Z,7.42
2022-10-12T18:21:51.492Z,7.38
2022-10-12T18:24:23.694Z,7.37
2022-10-12T18:26:55.870Z,7.35
2022-10-12T18:29:28.694Z,7.30
2022-10-12T18:32:01.355Z,7.27
2022-10-12T18:34:36.562Z,7.23
2022-10-12T18:37:09.304Z,7.16
2022-10-12T18:39:44.251Z,7.03
2022-10-12T18:42:19.742Z,7.07
2022-10-12T18:44:52.796Z,6.99
2022-10-12T18:47:24.904Z,6.99
2022-10-12T18:50:00.835Z,6.94
2022-10-12T18:52:36.008Z,6.87
2022-10-12T18:55:09.502Z,6.85
2022-10-12T18:57:41.884Z,6.80
2022-10-12T19:00:15.967Z,6.68
2022-10-12T19:02:48.404Z,6.60
2022-10-12T19:05:22.005Z,6.51
2022-10-12T19:07:55.612Z,6.45
2022-10-12T19:10:27.981Z,6.39
2022-10-12T19:13:00.874Z,6.34
2022-10-12T19:15:37.114Z,6.30
2022-10-12T19:18:09.329Z,6.22
2022-10-12T19:20:41.695Z,6.21
2022-10-12T19:23:14.096Z,6.17
2022-10-12T19:25:46.287Z,6.16
2022-10-12T19:28:18.751Z,6.13
2022-10-12T19:30:54.244Z,6.05
2022-10-12T19:33:28.565Z,6.25
2022-10-12T19:36:03.396Z,6.22
2022-10-12T19:38:36.044Z,6.22
2022-10-12T19:41:11.230Z,6.12
2022-10-12T19:43:45.693Z,6.09
2022-10-12T19:46:18.974Z,6.04
2022-10-12T19:48:54.906Z,6.01
2022-10-12T19:51:28.821Z,5.98
2022-10-12T19:54:04.526Z,5.97
2022-10-12T19:56:39.823Z,5.91
2022-10-12T19:59:12.081Z,5.87
2022-10-12T20:01:48.373Z,5.82
2022-10-12T20:04:20.786Z,5.75
2022-10-12T20:06:56.217Z,5.76
2022-10-12T20:09:31.228Z,5.76
2022-10-12T20:12:04.148Z,5.67
2022-10-12T20:14:36.364Z,5.61
2022-10-12T20:17:08.516Z,5.67
2022-10-12T20:19:40.466Z,5.67
2022-10-12T20:22:12.453Z,5.70
2022-10-12T20:24:44.697Z,5.70
2022-10-12T20:27:19.765Z,5.71
2022-10-12T20:29:52.087Z,5.76
2022-10-12T20:32:27.295Z,5.87
2022-10-12T20:34:59.963Z,5.89
2022-10-12T20:37:32.854Z,5.89
2022-10-12T20:40:04.999Z,5.96
2022-10-12T20:42:37.436Z,5.99
2022-10-12T20:45:14.460Z,5.95
2022-10-12T20:47:49.646Z,6.08
2022-10-12T20:50:24.592Z,6.05
2022-10-12T20:53:00.134Z,6.03
2022-10-12T20:55:32.546Z,6.15
2022-10-12T20:58:04.964Z,6.25
2022-10-12T21:00:39.547Z,6.12
2022-10-12T21:03:13.386Z,6.16
2022-10-12T21:05:43.484Z,6.33
2022-10-12T21:08:16.027Z,6.37
2022-10-12T21:10:50.845Z,6.49
2022-10-12T21:13:23.425Z,6.51
2022-10-12T21:15:56.251Z,6.64
2022-10-12T21:18:32.776Z,6.59
2022-10-12T21:21:11.768Z,6.49
2022-10-12T21:23:45.440Z,6.50
2022-10-12T21:26:19.904Z,6.57
2022-10-12T21:28:54.438Z,6.53
2022-10-12T21:31:32.081Z,6.48
2022-10-12T21:34:06.625Z,6.41
2022-10-12T21:36:39.596Z,6.34
2022-10-12T21:39:14.914Z,6.37
2022-10-12T21:41:52.594Z,6.31
2022-10-12T21:44:25.052Z,6.31
2022-10-12T21:46:59.964Z,6.28
2022-10-12T21:49:33.344Z,6.26
2022-10-12T21:52:06.185Z,6.34
2022-10-12T21:54:38.424Z,6.34
2022-10-12T21:57:10.737Z,6.44
2022-10-12T21:59:44.027Z,6.67
2022-10-12T22:02:16.131Z,6.82
2022-10-12T22:04:49.405Z,6.67
2022-10-12T22:07:21.666Z,6.55
2022-10-12T22:09:53.615Z,6.39
2022-10-12T22:12:25.545Z,6.32
2022-10-12T22:14:58.266Z,6.31
2022-10-12T22:17:32.366Z,6.24
2022-10-12T22:20:04.847Z,6.09
2022-10-12T22:22:39.106Z,6.00
2022-10-12T22:25:12.022Z,5.90
2022-10-12T22:27:43.914Z,5.81
2022-10-12T22:30:17.408Z,5.70
2022-10-12T22:32:49.514Z,5.65
2022-10-12T22:35:21.775Z,5.58
2022-10-12T22:37:56.432Z,5.55
2022-10-12T22:40:28.625Z,5.41
2022-10-12T22:43:00.663Z,5.36
2022-10-12T22:45:35.662Z,5.33
2022-10-12T22:48:07.805Z,5.26
2022-10-12T22:50:40.104Z,5.20
2022-10-12T22:53:12.682Z,5.19
2022-10-12T22:55:45.204Z,5.19
2022-10-12T22:58:17.434Z,5.16
2022-10-12T23:00:51.874Z,5.10
2022-10-12T23:03:30.273Z,5.11
2022-10-12T23:06:04.022Z,5.01
2022-10-12T23:08:37.373Z,5.01
2022-10-12T23:11:14.785Z,4.98
2022-10-12T23:13:48.343Z,5.03
2022-10-12T23:16:24.243Z,4.95
2022-10-12T23:18:59.644Z,5.03
2022-10-12T23:21:34.555Z,5.02
2022-10-12T23:24:09.335Z,4.95
2022-10-12T23:26:41.473Z,4.91
2022-10-12T23:29:13.776Z,4.91
2022-10-12T23:31:45.906Z,4.92
2022-10-12T23:34:17.995Z,4.91
2022-10-12T23:36:52.826Z,4.88
2022-10-12T23:39:25.521Z,4.83
2022-10-12T23:41:57.643Z,4.86
2022-10-12T23:44:30.062Z,4.79
2022-10-12T23:47:02.103Z,4.71
2022-10-12T23:49:33.945Z,4.67
2022-10-12T23:52:06.640Z,4.80
2022-10-12T23:54:38.614Z,4.66
2022-10-12T23:57:28.177Z,4.68
